sensor_id;sensor_type;location;lat;lon;timestamp;P1;durP1;ratioP1;P2;durP2;ratioP2
20383;SDS011;46458;50.966;7.002;2023-04-29T00:01:56;11.40;;;8.40;;
20383;SDS011;46458;50.966;7.002;2023-04-29T00:04:25;12.30;;;8.50;;
20383;SDS011;46458;50.966;7.002;2023-04-29T00:06:56;11.70;;;8.33;;
20383;SDS011;46458;50.966;7.002;2023-04-29T00:09:25;11.07;;;8.23;;
20383;SDS011;46458;50.966;7.002;2023-04-29T00:11:54;10.97;;;8.33;;
20383;SDS011;46458;50.966;7.002;2023-04-29T00:14:23;9.63;;;7.60;;
20383;SDS011;46458;50.966;7.002;2023-04-29T00:16:52;12.73;;;8.00;;
20383;SDS011;46458;50.966;7.002;2023-04-29T00:19:21;10.27;;;7.57;;
20383;SDS011;46458;50.966;7.002;2023-04-29T00:21:50;12.50;;;8.67;;
20383;SDS011;46458;50.966;7.002;2023-04-29T00:24:21;11.33;;;8.13;;
20383;SDS011;46458;50.966;7.002;2023-04-29T00:26:53;10.00;;;7.83;;
20383;SDS011;46458;50.966;7.002;2023-04-29T00:29:22;11.93;;;8.03;;
20383;SDS011;46458;50.966;7.002;2023-04-29T00:31:52;11.30;;;7.87;;
20383;SDS011;46458;50.966;7.002;2023-04-29T00:34:21;12.83;;;7.97;;
20383;SDS011;46458;50.966;7.002;2023-04-29T00:36:50;10.97;;;8.27;;
20383;SDS011;46458;50.966;7.002;2023-04-29T00:39:24;12.70;;;8.30;;
20383;SDS011;46458;50.966;7.002;2023-04-29T00:41:52;12.63;;;8.80;;
20383;SDS011;46458;50.966;7.002;2023-04-29T00:44:21;11.83;;;9.13;;
20383;SDS011;46458;50.966;7.002;2023-04-29T00:46:50;12.10;;;8.60;;
20383;SDS011;46458;50.966;7.002;2023-04-29T00:49:19;13.17;;;8.60;;
20383;SDS011;46458;50.966;7.002;2023-04-29T00:51:51;11.97;;;7.77;;
20383;SDS011;46458;50.966;7.002;2023-04-29T00:54:20;10.83;;;7.73;;
20383;SDS011;46458;50.966;7.002;2023-04-29T00:56:52;10.30;;;7.77;;
20383;SDS011;46458;50.966;7.002;2023-04-29T00:59:23;11.93;;;7.83;;
20383;SDS011;46458;50.966;7.002;2023-04-29T01:01:57;10.17;;;7.20;;
20383;SDS011;46458;50.966;7.002;2023-04-29T01:04:30;10.13;;;7.33;;
20383;SDS011;46458;50.966;7.002;2023-04-29T01:07:00;10.50;;;7.30;;
20383;SDS011;46458;50.966;7.002;2023-04-29T01:09:49;10.93;;;7.27;;
20383;SDS011;46458;50.966;7.002;2023-04-29T01:12:31;13.13;;;8.70;;
20383;SDS011;46458;50.966;7.002;2023-04-29T01:15:08;14.67;;;10.30;;
20383;SDS011;46458;50.966;7.002;2023-04-29T01:17:47;14.97;;;10.37;;
20383;SDS011;46458;50.966;7.002;2023-04-29T01:20:22;16.50;;;11.20;;
20383;SDS011;46458;50.966;7.002;2023-04-29T01:22:57;15.97;;;10.70;;
20383;SDS011;46458;50.966;7.002;2023-04-29T01:25:30;18.10;;;11.37;;
20383;SDS011;46458;50.966;7.002;2023-04-29T01:28:08;21.70;;;12.13;;
20383;SDS011;46458;50.966;7.002;2023-04-29T01:30:44;18.20;;;11.87;;
20383;SDS011;46458;50.966;7.002;2023-04-29T01:33:19;19.20;;;12.90;;
20383;SDS011;46458;50.966;7.002;2023-04-29T01:35:58;21.57;;;13.97;;
20383;SDS011;46458;50.966;7.002;2023-04-29T01:38:35;21.90;;;13.77;;
20383;SDS011;46458;50.966;7.002;2023-04-29T01:41:15;19.80;;;13.80;;
20383;SDS011;46458;50.966;7.002;2023-04-29T01:43:55;24.00;;;15.33;;
20383;SDS011;46458;50.966;7.002;2023-04-29T01:46:29;24.47;;;14.43;;
20383;SDS011;46458;50.966;7.002;2023-04-29T01:49:03;22.43;;;14.70;;
20383;SDS011;46458;50.966;7.002;2023-04-29T01:51:34;23.73;;;15.13;;
20383;SDS011;46458;50.966;7.002;2023-04-29T01:54:05;25.17;;;16.63;;
20383;SDS011;46458;50.966;7.002;2023-04-29T01:56:36;28.17;;;17.90;;
20383;SDS011;46458;50.966;7.002;2023-04-29T01:59:31;27.07;;;17.37;;
20383;SDS011;46458;50.966;7.002;2023-04-29T02:02:19;27.57;;;18.50;;
20383;SDS011;46458;50.966;7.002;2023-04-29T02:04:57;32.53;;;19.43;;
20383;SDS011;46458;50.966;7.002;2023-04-29T02:07:26;34.10;;;21.37;;
20383;SDS011;46458;50.966;7.002;2023-04-29T02:09:57;32.93;;;20.83;;
20383;SDS011;46458;50.966;7.002;2023-04-29T02:12:29;35.10;;;21.37;;
20383;SDS011;46458;50.966;7.002;2023-04-29T02:14:58;37.67;;;23.90;;
20383;SDS011;46458;50.966;7.002;2023-04-29T02:17:27;38.63;;;22.83;;
20383;SDS011;46458;50.966;7.002;2023-04-29T02:19:56;36.70;;;22.87;;
20383;SDS011;46458;50.966;7.002;2023-04-29T02:22:27;37.43;;;22.43;;
20383;SDS011;46458;50.966;7.002;2023-04-29T02:24:56;39.13;;;24.43;;
20383;SDS011;46458;50.966;7.002;2023-04-29T02:27:25;43.27;;;24.73;;
20383;SDS011;46458;50.966;7.002;2023-04-29T02:29:57;46.93;;;26.57;;
20383;SDS011;46458;50.966;7.002;2023-04-29T02:32:26;44.17;;;27.03;;
20383;SDS011;46458;50.966;7.002;2023-04-29T02:34:55;48.27;;;27.07;;
20383;SDS011;46458;50.966;7.002;2023-04-29T02:37:26;47.33;;;28.23;;
20383;SDS011;46458;50.966;7.002;2023-04-29T02:39:55;48.40;;;27.57;;
20383;SDS011;46458;50.966;7.002;2023-04-29T02:42:23;46.77;;;26.23;;
20383;SDS011;46458;50.966;7.002;2023-04-29T02:44:55;46.23;;;27.30;;
20383;SDS011;46458;50.966;7.002;2023-04-29T02:47:24;47.70;;;27.63;;
20383;SDS011;46458;50.966;7.002;2023-04-29T02:49:53;48.87;;;26.70;;
20383;SDS011;46458;50.966;7.002;2023-04-29T02:52:25;50.07;;;28.00;;
20383;SDS011;46458;50.966;7.002;2023-04-29T02:54:54;47.60;;;27.30;;
20383;SDS011;46458;50.966;7.002;2023-04-29T02:57:25;51.37;;;28.60;;
20383;SDS011;46458;50.966;7.002;2023-04-29T02:59:59;52.97;;;29.03;;
20383;SDS011;46458;50.966;7.002;2023-04-29T03:02:28;53.50;;;30.83;;
20383;SDS011;46458;50.966;7.002;2023-04-29T03:04:58;57.37;;;30.47;;
20383;SDS011;46458;50.966;7.002;2023-04-29T03:07:27;58.90;;;31.53;;
20383;SDS011;46458;50.966;7.002;2023-04-29T03:09:56;58.43;;;31.57;;
20383;SDS011;46458;50.966;7.002;2023-04-29T03:12:25;60.97;;;32.87;;
20383;SDS011;46458;50.966;7.002;2023-04-29T03:14:56;60.73;;;33.30;;
20383;SDS011;46458;50.966;7.002;2023-04-29T03:17:25;59.67;;;33.20;;
20383;SDS011;46458;50.966;7.002;2023-04-29T03:19:54;65.93;;;32.93;;
20383;SDS011;46458;50.966;7.002;2023-04-29T03:22:23;68.30;;;36.37;;
20383;SDS011;46458;50.966;7.002;2023-04-29T03:24:52;61.17;;;34.07;;
20383;SDS011;46458;50.966;7.002;2023-04-29T03:27:21;64.17;;;34.93;;
20383;SDS011;46458;50.966;7.002;2023-04-29T03:29:50;65.87;;;35.50;;
20383;SDS011;46458;50.966;7.002;2023-04-29T03:32:21;67.37;;;35.00;;
20383;SDS011;46458;50.966;7.002;2023-04-29T03:34:51;66.83;;;35.53;;
20383;SDS011;46458;50.966;7.002;2023-04-29T03:37:33;68.87;;;35.33;;
20383;SDS011;46458;50.966;7.002;2023-04-29T03:40:17;67.30;;;32.90;;
20383;SDS011;46458;50.966;7.002;2023-04-29T03:42:46;65.50;;;33.13;;
20383;SDS011;46458;50.966;7.002;2023-04-29T03:45:18;57.93;;;31.63;;
20383;SDS011;46458;50.966;7.002;2023-04-29T03:47:49;65.07;;;31.70;;
20383;SDS011;46458;50.966;7.002;2023-04-29T03:50:19;64.27;;;31.50;;
20383;SDS011;46458;50.966;7.002;2023-04-29T03:52:48;57.57;;;30.47;;
20383;SDS011;46458;50.966;7.002;2023-04-29T03:55:19;64.80;;;29.27;;
20383;SDS011;46458;50.966;7.002;2023-04-29T03:57:47;63.40;;;27.80;;
20383;SDS011;46458;50.966;7.002;2023-04-29T04:00:17;54.20;;;25.60;;
20383;SDS011;46458;50.966;7.002;2023-04-29T04:02:54;58.63;;;26.37;;
20383;SDS011;46458;50.966;7.002;2023-04-29T04:05:34;58.37;;;27.33;;
20383;SDS011;46458;50.966;7.002;2023-04-29T04:08:07;55.97;;;25.07;;
20383;SDS011;46458;50.966;7.002;2023-04-29T04:10:51;54.87;;;26.57;;
20383;SDS011;46458;50.966;7.002;2023-04-29T04:13:34;57.10;;;25.97;;
20383;SDS011;46458;50.966;7.002;2023-04-29T04:16:03;56.47;;;26.37;;
20383;SDS011;46458;50.966;7.002;2023-04-29T04:18:35;52.70;;;26.83;;
20383;SDS011;46458;50.966;7.002;2023-04-29T04:21:05;52.77;;;26.63;;
20383;SDS011;46458;50.966;7.002;2023-04-29T04:23:34;53.53;;;25.97;;
20383;SDS011;46458;50.966;7.002;2023-04-29T04:26:05;52.77;;;26.53;;
20383;SDS011;46458;50.966;7.002;2023-04-29T04:28:51;47.33;;;23.90;;
20383;SDS011;46458;50.966;7.002;2023-04-29T04:31:30;48.23;;;24.73;;
20383;SDS011;46458;50.966;7.002;2023-04-29T04:34:01;49.37;;;24.90;;
20383;SDS011;46458;50.966;7.002;2023-04-29T04:36:31;47.97;;;25.37;;
20383;SDS011;46458;50.966;7.002;2023-04-29T04:39:03;52.97;;;25.97;;
20383;SDS011;46458;50.966;7.002;2023-04-29T04:41:32;47.03;;;23.93;;
20383;SDS011;46458;50.966;7.002;2023-04-29T04:44:00;49.60;;;24.10;;
20383;SDS011;46458;50.966;7.002;2023-04-29T04:46:40;46.30;;;23.87;;
20383;SDS011;46458;50.966;7.002;2023-04-29T04:49:19;47.73;;;24.30;;
20383;SDS011;46458;50.966;7.002;2023-04-29T04:51:51;51.13;;;25.03;;
20383;SDS011;46458;50.966;7.002;2023-04-29T04:54:20;46.73;;;24.73;;
20383;SDS011;46458;50.966;7.002;2023-04-29T04:56:58;51.67;;;24.17;;
20383;SDS011;46458;50.966;7.002;2023-04-29T04:59:30;49.90;;;25.07;;
20383;SDS011;46458;50.966;7.002;2023-04-29T05:01:59;47.70;;;24.30;;
20383;SDS011;46458;50.966;7.002;2023-04-29T05:04:30;46.70;;;22.83;;
20383;SDS011;46458;50.966;7.002;2023-04-29T05:06:59;52.03;;;24.33;;
20383;SDS011;46458;50.966;7.002;2023-04-29T05:09:36;47.47;;;23.57;;
20383;SDS011;46458;50.966;7.002;2023-04-29T05:12:05;42.57;;;21.47;;
20383;SDS011;46458;50.966;7.002;2023-04-29T05:14:37;41.47;;;21.07;;
20383;SDS011;46458;50.966;7.002;2023-04-29T05:17:05;37.63;;;20.60;;
20383;SDS011;46458;50.966;7.002;2023-04-29T05:19:38;38.57;;;21.53;;
20383;SDS011;46458;50.966;7.002;2023-04-29T05:22:09;37.80;;;19.50;;
20383;SDS011;46458;50.966;7.002;2023-04-29T05:24:39;40.17;;;21.13;;
20383;SDS011;46458;50.966;7.002;2023-04-29T05:27:08;38.70;;;21.27;;
20383;SDS011;46458;50.966;7.002;2023-04-29T05:29:37;38.77;;;22.00;;
20383;SDS011;46458;50.966;7.002;2023-04-29T05:32:06;40.73;;;20.17;;
20383;SDS011;46458;50.966;7.002;2023-04-29T05:34:38;33.40;;;18.93;;
20383;SDS011;46458;50.966;7.002;2023-04-29T05:37:08;39.37;;;20.80;;
20383;SDS011;46458;50.966;7.002;2023-04-29T05:39:52;37.43;;;19.50;;
20383;SDS011;46458;50.966;7.002;2023-04-29T05:42:22;37.10;;;19.60;;
20383;SDS011;46458;50.966;7.002;2023-04-29T05:44:51;35.70;;;18.40;;
20383;SDS011;46458;50.966;7.002;2023-04-29T05:47:20;38.27;;;19.37;;
20383;SDS011;46458;50.966;7.002;2023-04-29T05:49:52;34.13;;;18.57;;
20383;SDS011;46458;50.966;7.002;2023-04-29T05:52:23;33.87;;;17.93;;
20383;SDS011;46458;50.966;7.002;2023-04-29T05:54:52;29.53;;;16.63;;
20383;SDS011;46458;50.966;7.002;2023-04-29T05:57:22;31.03;;;15.97;;
20383;SDS011;46458;50.966;7.002;2023-04-29T05:59:52;31.27;;;16.30;;
20383;SDS011;46458;50.966;7.002;2023-04-29T06:02:24;25.70;;;15.43;;
20383;SDS011;46458;50.966;7.002;2023-04-29T06:04:55;24.23;;;14.67;;
20383;SDS011;46458;50.966;7.002;2023-04-29T06:07:39;25.53;;;15.03;;
20383;SDS011;46458;50.966;7.002;2023-04-29T06:10:22;25.57;;;14.63;;
20383;SDS011;46458;50.966;7.002;2023-04-29T06:12:51;24.80;;;15.00;;
20383;SDS011;46458;50.966;7.002;2023-04-29T06:15:20;24.23;;;15.07;;
20383;SDS011;46458;50.966;7.002;2023-04-29T06:17:49;26.03;;;14.67;;
20383;SDS011;46458;50.966;7.002;2023-04-29T06:20:22;22.87;;;13.73;;
20383;SDS011;46458;50.966;7.002;2023-04-29T06:22:52;26.50;;;14.80;;
20383;SDS011;46458;50.966;7.002;2023-04-29T06:25:23;22.57;;;14.83;;
20383;SDS011;46458;50.966;7.002;2023-04-29T06:27:53;24.67;;;15.50;;
20383;SDS011;46458;50.966;7.002;2023-04-29T06:30:23;22.80;;;14.80;;
20383;SDS011;46458;50.966;7.002;2023-04-29T06:32:53;24.83;;;15.60;;
20383;SDS011;46458;50.966;7.002;2023-04-29T06:35:25;24.93;;;15.33;;
20383;SDS011;46458;50.966;7.002;2023-04-29T06:38:12;26.00;;;14.87;;
20383;SDS011;46458;50.966;7.002;2023-04-29T06:41:06;30.17;;;17.77;;
20383;SDS011;46458;50.966;7.002;2023-04-29T06:43:53;25.33;;;14.90;;
20383;SDS011;46458;50.966;7.002;2023-04-29T06:46:34;25.90;;;15.30;;
20383;SDS011;46458;50.966;7.002;2023-04-29T06:49:16;27.97;;;15.30;;
20383;SDS011;46458;50.966;7.002;2023-04-29T06:51:50;25.23;;;15.67;;
20383;SDS011;46458;50.966;7.002;2023-04-29T06:54:19;26.80;;;16.30;;
20383;SDS011;46458;50.966;7.002;2023-04-29T06:56:49;25.80;;;16.07;;
20383;SDS011;46458;50.966;7.002;2023-04-29T06:59:18;24.57;;;15.27;;
20383;SDS011;46458;50.966;7.002;2023-04-29T07:01:46;26.93;;;15.90;;
20383;SDS011;46458;50.966;7.002;2023-04-29T07:04:18;25.03;;;15.80;;
20383;SDS011;46458;50.966;7.002;2023-04-29T07:06:49;25.67;;;15.90;;
20383;SDS011;46458;50.966;7.002;2023-04-29T07:09:18;24.13;;;15.93;;
20383;SDS011;46458;50.966;7.002;2023-04-29T07:11:47;22.47;;;16.37;;
20383;SDS011;46458;50.966;7.002;2023-04-29T07:14:18;24.47;;;15.67;;
20383;SDS011;46458;50.966;7.002;2023-04-29T07:16:51;25.93;;;16.40;;
20383;SDS011;46458;50.966;7.002;2023-04-29T07:19:21;28.13;;;16.80;;
20383;SDS011;46458;50.966;7.002;2023-04-29T07:21:52;23.13;;;15.43;;
20383;SDS011;46458;50.966;7.002;2023-04-29T07:24:22;23.43;;;16.70;;
20383;SDS011;46458;50.966;7.002;2023-04-29T07:26:51;26.83;;;17.47;;
20383;SDS011;46458;50.966;7.002;2023-04-29T07:29:19;27.17;;;18.13;;
20383;SDS011;46458;50.966;7.002;2023-04-29T07:31:48;27.33;;;17.03;;
20383;SDS011;46458;50.966;7.002;2023-04-29T07:34:17;25.73;;;17.00;;
20383;SDS011;46458;50.966;7.002;2023-04-29T07:36:49;24.83;;;16.93;;
20383;SDS011;46458;50.966;7.002;2023-04-29T07:39:20;25.77;;;17.20;;
20383;SDS011;46458;50.966;7.002;2023-04-29T07:41:54;25.20;;;17.30;;
20383;SDS011;46458;50.966;7.002;2023-04-29T07:44:24;23.57;;;16.13;;
20383;SDS011;46458;50.966;7.002;2023-04-29T07:46:53;27.80;;;17.77;;
20383;SDS011;46458;50.966;7.002;2023-04-29T07:49:22;24.53;;;16.20;;
20383;SDS011;46458;50.966;7.002;2023-04-29T07:51:51;25.73;;;17.40;;
20383;SDS011;46458;50.966;7.002;2023-04-29T07:54:22;24.27;;;16.17;;
20383;SDS011;46458;50.966;7.002;2023-04-29T07:56:56;25.70;;;16.20;;
20383;SDS011;46458;50.966;7.002;2023-04-29T07:59:28;26.03;;;17.43;;
20383;SDS011;46458;50.966;7.002;2023-04-29T08:01:57;26.33;;;18.03;;
20383;SDS011;46458;50.966;7.002;2023-04-29T08:04:26;23.83;;;17.03;;
20383;SDS011;46458;50.966;7.002;2023-04-29T08:07:02;27.07;;;16.83;;
20383;SDS011;46458;50.966;7.002;2023-04-29T08:09:36;28.50;;;19.03;;
20383;SDS011;46458;50.966;7.002;2023-04-29T08:12:04;25.03;;;17.43;;
20383;SDS011;46458;50.966;7.002;2023-04-29T08:14:39;26.17;;;17.67;;
20383;SDS011;46458;50.966;7.002;2023-04-29T08:17:07;26.53;;;16.47;;
20383;SDS011;46458;50.966;7.002;2023-04-29T08:19:36;20.17;;;14.83;;
20383;SDS011;46458;50.966;7.002;2023-04-29T08:22:05;27.07;;;15.47;;
20383;SDS011;46458;50.966;7.002;2023-04-29T08:24:41;21.70;;;14.77;;
20383;SDS011;46458;50.966;7.002;2023-04-29T08:27:10;21.67;;;15.17;;
20383;SDS011;46458;50.966;7.002;2023-04-29T08:29:39;23.77;;;15.13;;
20383;SDS011;46458;50.966;7.002;2023-04-29T08:32:08;21.73;;;14.63;;
20383;SDS011;46458;50.966;7.002;2023-04-29T08:34:37;26.97;;;17.10;;
20383;SDS011;46458;50.966;7.002;2023-04-29T08:37:09;25.20;;;16.33;;
20383;SDS011;46458;50.966;7.002;2023-04-29T08:39:37;26.07;;;16.80;;
20383;SDS011;46458;50.966;7.002;2023-04-29T08:42:11;24.43;;;15.93;;
20383;SDS011;46458;50.966;7.002;2023-04-29T08:44:40;21.93;;;14.80;;
20383;SDS011;46458;50.966;7.002;2023-04-29T08:47:10;25.03;;;14.67;;
20383;SDS011;46458;50.966;7.002;2023-04-29T08:49:40;21.67;;;15.07;;
20383;SDS011;46458;50.966;7.002;2023-04-29T08:52:09;19.70;;;13.77;;
20383;SDS011;46458;50.966;7.002;2023-04-29T08:54:41;21.43;;;14.93;;
20383;SDS011;46458;50.966;7.002;2023-04-29T08:57:10;22.63;;;14.13;;
20383;SDS011;46458;50.966;7.002;2023-04-29T08:59:39;19.63;;;13.73;;
20383;SDS011;46458;50.966;7.002;2023-04-29T09:02:08;20.90;;;14.50;;
20383;SDS011;46458;50.966;7.002;2023-04-29T09:04:46;19.37;;;13.73;;
20383;SDS011;46458;50.966;7.002;2023-04-29T09:07:17;19.47;;;14.30;;
20383;SDS011;46458;50.966;7.002;2023-04-29T09:09:51;19.77;;;14.23;;
20383;SDS011;46458;50.966;7.002;2023-04-29T09:12:21;22.83;;;14.53;;
20383;SDS011;46458;50.966;7.002;2023-04-29T09:14:54;20.23;;;14.30;;
20383;SDS011;46458;50.966;7.002;2023-04-29T09:17:37;19.10;;;13.83;;
20383;SDS011;46458;50.966;7.002;2023-04-29T09:20:25;21.90;;;14.63;;
20383;SDS011;46458;50.966;7.002;2023-04-29T09:22:57;22.70;;;15.40;;
20383;SDS011;46458;50.966;7.002;2023-04-29T09:25:30;23.67;;;15.67;;
20383;SDS011;46458;50.966;7.002;2023-04-29T09:28:07;21.83;;;14.93;;
20383;SDS011;46458;50.966;7.002;2023-04-29T09:30:45;23.17;;;14.33;;
20383;SDS011;46458;50.966;7.002;2023-04-29T09:33:15;22.20;;;15.70;;
20383;SDS011;46458;50.966;7.002;2023-04-29T09:35:43;25.03;;;16.33;;
20383;SDS011;46458;50.966;7.002;2023-04-29T09:38:13;25.07;;;16.67;;
20383;SDS011;46458;50.966;7.002;2023-04-29T09:40:48;30.63;;;20.50;;
20383;SDS011;46458;50.966;7.002;2023-04-29T09:43:18;31.90;;;20.07;;
20383;SDS011;46458;50.966;7.002;2023-04-29T09:45:48;32.27;;;22.10;;
20383;SDS011;46458;50.966;7.002;2023-04-29T09:48:17;32.00;;;20.77;;
20383;SDS011;46458;50.966;7.002;2023-04-29T09:50:57;31.03;;;20.73;;
20383;SDS011;46458;50.966;7.002;2023-04-29T09:53:35;30.43;;;20.27;;
20383;SDS011;46458;50.966;7.002;2023-04-29T09:56:07;32.10;;;19.47;;
20383;SDS011;46458;50.966;7.002;2023-04-29T09:58:35;26.87;;;18.33;;
20383;SDS011;46458;50.966;7.002;2023-04-29T10:01:04;26.87;;;18.90;;
20383;SDS011;46458;50.966;7.002;2023-04-29T10:03:37;26.33;;;18.17;;
20383;SDS011;46458;50.966;7.002;2023-04-29T10:06:08;27.97;;;20.53;;
20383;SDS011;46458;50.966;7.002;2023-04-29T10:08:38;27.23;;;20.67;;
20383;SDS011;46458;50.966;7.002;2023-04-29T10:11:10;32.00;;;21.37;;
20383;SDS011;46458;50.966;7.002;2023-04-29T10:13:41;29.60;;;20.70;;
20383;SDS011;46458;50.966;7.002;2023-04-29T10:16:14;31.87;;;20.40;;
20383;SDS011;46458;50.966;7.002;2023-04-29T10:18:54;31.07;;;21.97;;
20383;SDS011;46458;50.966;7.002;2023-04-29T10:21:26;33.13;;;22.40;;
20383;SDS011;46458;50.966;7.002;2023-04-29T10:24:00;37.00;;;22.67;;
20383;SDS011;46458;50.966;7.002;2023-04-29T10:26:33;31.17;;;22.13;;
20383;SDS011;46458;50.966;7.002;2023-04-29T10:29:05;34.73;;;21.20;;
20383;SDS011;46458;50.966;7.002;2023-04-29T10:31:38;28.10;;;19.93;;
20383;SDS011;46458;50.966;7.002;2023-04-29T10:34:08;29.77;;;20.97;;
20383;SDS011;46458;50.966;7.002;2023-04-29T10:36:38;30.03;;;21.40;;
20383;SDS011;46458;50.966;7.002;2023-04-29T10:39:11;29.27;;;20.83;;
20383;SDS011;46458;50.966;7.002;2023-04-29T10:41:53;29.07;;;20.93;;
20383;SDS011;46458;50.966;7.002;2023-04-29T10:44:23;31.20;;;20.57;;
20383;SDS011;46458;50.966;7.002;2023-04-29T10:55:22;55.60;;;34.47;;
20383;SDS011;46458;50.966;7.002;2023-04-29T10:57:54;58.87;;;35.63;;
20383;SDS011;46458;50.966;7.002;2023-04-29T11:00:25;58.17;;;36.27;;
20383;SDS011;46458;50.966;7.002;2023-04-29T11:02:55;53.50;;;35.40;;
20383;SDS011;46458;50.966;7.002;2023-04-29T11:05:29;59.40;;;35.57;;
20383;SDS011;46458;50.966;7.002;2023-04-29T11:08:08;62.00;;;37.77;;
20383;SDS011;46458;50.966;7.002;2023-04-29T11:10:40;63.67;;;39.00;;
20383;SDS011;46458;50.966;7.002;2023-04-29T11:13:22;59.37;;;38.77;;
20383;SDS011;46458;50.966;7.002;2023-04-29T11:16:02;64.17;;;38.23;;
20383;SDS011;46458;50.966;7.002;2023-04-29T11:18:31;65.67;;;41.20;;
20383;SDS011;46458;50.966;7.002;2023-04-29T11:21:10;73.33;;;43.07;;
20383;SDS011;46458;50.966;7.002;2023-04-29T11:23:42;75.67;;;44.60;;
20383;SDS011;46458;50.966;7.002;2023-04-29T11:26:12;72.90;;;43.20;;
20383;SDS011;46458;50.966;7.002;2023-04-29T11:28:43;69.27;;;44.30;;
20383;SDS011;46458;50.966;7.002;2023-04-29T11:31:12;74.80;;;44.53;;
20383;SDS011;46458;50.966;7.002;2023-04-29T11:33:41;71.23;;;44.40;;
20383;SDS011;46458;50.966;7.002;2023-04-29T11:36:10;74.33;;;45.07;;
20383;SDS011;46458;50.966;7.002;2023-04-29T11:38:39;71.43;;;43.07;;
20383;SDS011;46458;50.966;7.002;2023-04-29T11:41:09;70.47;;;41.40;;
20383;SDS011;46458;50.966;7.002;2023-04-29T11:43:40;67.40;;;41.40;;
20383;SDS011;46458;50.966;7.002;2023-04-29T11:46:13;59.50;;;38.03;;
20383;SDS011;46458;50.966;7.002;2023-04-29T11:48:46;57.10;;;35.40;;
20383;SDS011;46458;50.966;7.002;2023-04-29T11:51:16;59.37;;;37.37;;
20383;SDS011;46458;50.966;7.002;2023-04-29T11:53:46;64.77;;;38.07;;
20383;SDS011;46458;50.966;7.002;2023-04-29T11:56:16;65.97;;;40.40;;
20383;SDS011;46458;50.966;7.002;2023-04-29T11:58:52;62.83;;;39.17;;
20383;SDS011;46458;50.966;7.002;2023-04-29T12:01:22;67.40;;;40.20;;
20383;SDS011;46458;50.966;7.002;2023-04-29T12:03:55;67.17;;;39.93;;
20383;SDS011;46458;50.966;7.002;2023-04-29T12:06:29;60.37;;;38.13;;
20383;SDS011;46458;50.966;7.002;2023-04-29T12:09:06;64.73;;;40.43;;
20383;SDS011;46458;50.966;7.002;2023-04-29T12:11:35;104.63;;;62.10;;
20383;SDS011;46458;50.966;7.002;2023-04-29T12:14:08;59.93;;;38.83;;
20383;SDS011;46458;50.966;7.002;2023-04-29T12:16:37;58.13;;;36.10;;
20383;SDS011;46458;50.966;7.002;2023-04-29T12:19:06;58.10;;;35.93;;
20383;SDS011;46458;50.966;7.002;2023-04-29T12:21:36;55.07;;;35.37;;
20383;SDS011;46458;50.966;7.002;2023-04-29T12:24:14;48.67;;;33.47;;
20383;SDS011;46458;50.966;7.002;2023-04-29T12:26:43;48.23;;;31.77;;
20383;SDS011;46458;50.966;7.002;2023-04-29T12:29:16;47.77;;;28.27;;
20383;SDS011;46458;50.966;7.002;2023-04-29T12:31:49;44.93;;;27.13;;
20383;SDS011;46458;50.966;7.002;2023-04-29T12:34:23;39.80;;;26.27;;
20383;SDS011;46458;50.966;7.002;2023-04-29T12:36:53;41.33;;;26.67;;
20383;SDS011;46458;50.966;7.002;2023-04-29T12:39:23;40.30;;;25.23;;
20383;SDS011;46458;50.966;7.002;2023-04-29T12:41:56;38.93;;;24.43;;
20383;SDS011;46458;50.966;7.002;2023-04-29T12:44:33;36.50;;;24.40;;
20383;SDS011;46458;50.966;7.002;2023-04-29T12:47:06;39.33;;;24.17;;
20383;SDS011;46458;50.966;7.002;2023-04-29T12:49:39;37.27;;;24.30;;
20383;SDS011;46458;50.966;7.002;2023-04-29T12:52:09;38.73;;;23.87;;
20383;SDS011;46458;50.966;7.002;2023-04-29T12:54:38;43.03;;;25.53;;
20383;SDS011;46458;50.966;7.002;2023-04-29T12:57:08;37.47;;;23.60;;
20383;SDS011;46458;50.966;7.002;2023-04-29T12:59:39;38.97;;;24.60;;
20383;SDS011;46458;50.966;7.002;2023-04-29T13:02:08;40.47;;;24.40;;
20383;SDS011;46458;50.966;7.002;2023-04-29T13:04:37;36.37;;;24.53;;
20383;SDS011;46458;50.966;7.002;2023-04-29T13:07:06;37.43;;;23.67;;
20383;SDS011;46458;50.966;7.002;2023-04-29T13:09:37;39.20;;;23.77;;
20383;SDS011;46458;50.966;7.002;2023-04-29T13:12:08;42.27;;;24.47;;
20383;SDS011;46458;50.966;7.002;2023-04-29T13:14:42;36.37;;;23.37;;
20383;SDS011;46458;50.966;7.002;2023-04-29T13:17:11;35.70;;;24.07;;
20383;SDS011;46458;50.966;7.002;2023-04-29T13:19:40;42.40;;;24.77;;
20383;SDS011;46458;50.966;7.002;2023-04-29T13:22:10;38.60;;;24.63;;
20383;SDS011;46458;50.966;7.002;2023-04-29T13:24:48;37.77;;;24.40;;
20383;SDS011;46458;50.966;7.002;2023-04-29T13:27:17;35.73;;;22.87;;
20383;SDS011;46458;50.966;7.002;2023-04-29T13:29:51;33.30;;;22.67;;
20383;SDS011;46458;50.966;7.002;2023-04-29T13:32:20;37.20;;;22.97;;
20383;SDS011;46458;50.966;7.002;2023-04-29T13:34:49;33.93;;;22.73;;
20383;SDS011;46458;50.966;7.002;2023-04-29T13:37:18;30.77;;;21.23;;
20383;SDS011;46458;50.966;7.002;2023-04-29T13:39:50;34.73;;;23.50;;
20383;SDS011;46458;50.966;7.002;2023-04-29T13:42:19;37.37;;;22.87;;
20383;SDS011;46458;50.966;7.002;2023-04-29T13:44:51;37.10;;;23.67;;
20383;SDS011;46458;50.966;7.002;2023-04-29T13:47:23;39.57;;;23.97;;
20383;SDS011;46458;50.966;7.002;2023-04-29T13:49:52;32.53;;;22.50;;
20383;SDS011;46458;50.966;7.002;2023-04-29T13:52:21;33.40;;;22.77;;
20383;SDS011;46458;50.966;7.002;2023-04-29T13:54:50;33.13;;;21.90;;
20383;SDS011;46458;50.966;7.002;2023-04-29T13:57:19;33.13;;;22.00;;
20383;SDS011;46458;50.966;7.002;2023-04-29T13:59:51;30.83;;;20.90;;
20383;SDS011;46458;50.966;7.002;2023-04-29T14:02:20;29.30;;;21.73;;
20383;SDS011;46458;50.966;7.002;2023-04-29T14:04:49;33.93;;;22.17;;
20383;SDS011;46458;50.966;7.002;2023-04-29T14:07:18;30.37;;;21.27;;
20383;SDS011;46458;50.966;7.002;2023-04-29T14:09:47;32.47;;;20.67;;
20383;SDS011;46458;50.966;7.002;2023-04-29T14:12:16;31.87;;;20.70;;
20383;SDS011;46458;50.966;7.002;2023-04-29T14:14:45;29.93;;;21.20;;
20383;SDS011;46458;50.966;7.002;2023-04-29T14:17:17;30.07;;;20.83;;
20383;SDS011;46458;50.966;7.002;2023-04-29T14:19:45;29.57;;;21.03;;
20383;SDS011;46458;50.966;7.002;2023-04-29T14:22:14;31.93;;;20.67;;
20383;SDS011;46458;50.966;7.002;2023-04-29T14:24:43;31.33;;;20.47;;
20383;SDS011;46458;50.966;7.002;2023-04-29T14:27:12;30.97;;;20.60;;
20383;SDS011;46458;50.966;7.002;2023-04-29T14:29:41;31.17;;;20.50;;
20383;SDS011;46458;50.966;7.002;2023-04-29T14:32:10;29.50;;;20.60;;
20383;SDS011;46458;50.966;7.002;2023-04-29T14:34:42;29.13;;;19.63;;
20383;SDS011;46458;50.966;7.002;2023-04-29T14:37:10;28.73;;;19.77;;
20383;SDS011;46458;50.966;7.002;2023-04-29T14:39:39;27.27;;;19.03;;
20383;SDS011;46458;50.966;7.002;2023-04-29T14:42:08;39.67;;;27.50;;
20383;SDS011;46458;50.966;7.002;2023-04-29T14:44:39;25.53;;;18.70;;
20383;SDS011;46458;50.966;7.002;2023-04-29T14:47:08;27.50;;;18.70;;
20383;SDS011;46458;50.966;7.002;2023-04-29T14:49:37;27.47;;;18.97;;
20383;SDS011;46458;50.966;7.002;2023-04-29T14:52:09;26.30;;;18.93;;
20383;SDS011;46458;50.966;7.002;2023-04-29T14:54:38;24.47;;;17.80;;
20383;SDS011;46458;50.966;7.002;2023-04-29T14:57:08;25.27;;;18.47;;
20383;SDS011;46458;50.966;7.002;2023-04-29T14:59:37;26.47;;;18.93;;